Time;durP1;ratioP1;P1;durP2;ratioP2;P2;SDS_P1;SDS_P2;PMS_P1;PMS_P2;Temp;Humidity;BMP_temperature;BMP_pressure;BME280_temperature;BME280_humidity;BME280_pressure;Samples;Min_cycle;Max_cycle;Signal;HPM_P1;HPM_P2
2022/11/28 00:01:14;;;;;;;19.23;9.05;;;2.90;99.90;;;;;;5044560;28;20051;-64
2022/11/28 00:03:40;;;;;;;25.27;10.13;;;2.80;99.90;;;;;;5040743;28;20363;-67
2022/11/28 00:06:06;;;;;;;24.05;10.30;;;2.80;99.90;;;;;;5031757;28;20030;-66
2022/11/28 00:08:33;;;;;;;18.98;8.98;;;2.70;99.90;;;;;;5048449;28;20037;-67
2022/11/28 00:11:12;;;;;;;23.50;9.30;;;2.70;99.90;;;;;;5031307;28;20026;-67
2022/11/28 00:13:38;;;;;;;21.55;9.55;;;2.80;99.90;;;;;;5032315;28;20053;-68
2022/11/28 00:16:06;;;;;;;22.73;9.57;;;2.80;99.90;;;;;;5031108;28;20035;-66
2022/11/28 00:18:32;;;;;;;23.80;9.60;;;2.80;99.90;;;;;;5048715;28;20087;-66
2022/11/28 00:21:03;;;;;;;21.55;9.50;;;2.80;99.90;;;;;;5030627;28;20040;-66
2022/11/28 00:23:29;;;;;;;25.23;10.10;;;2.80;99.90;;;;;;5026480;28;20037;-66
2022/11/28 00:25:59;;;;;;;21.98;10.40;;;2.80;99.90;;;;;;5043974;28;20108;-65
2022/11/28 00:28:25;;;;;;;22.00;9.38;;;2.80;99.90;;;;;;5042091;28;20032;-64
2022/11/28 00:30:51;;;;;;;25.02;10.95;;;2.80;99.90;;;;;;5030173;28;20044;-66
2022/11/28 00:33:16;;;;;;;25.10;10.25;;;2.90;99.90;;;;;;5022095;28;20120;-66
2022/11/28 00:35:42;;;;;;;22.85;9.73;;;2.90;99.90;;;;;;5042006;28;20523;-69
2022/11/28 00:38:08;;;;;;;22.52;9.25;;;2.90;99.90;;;;;;5045872;28;20052;-66
2022/11/28 00:40:33;;;;;;;26.88;10.15;;;3.00;99.90;;;;;;5040317;28;20520;-64
2022/11/28 00:42:59;;;;;;;25.00;10.43;;;3.00;99.90;;;;;;5036942;28;20042;-64
2022/11/28 00:45:25;;;;;;;20.58;8.55;;;3.00;99.90;;;;;;5028531;28;20116;-65
2022/11/28 00:47:50;;;;;;;20.23;8.63;;;2.90;99.90;;;;;;5028030;28;20520;-64
2022/11/28 00:50:16;;;;;;;18.50;7.82;;;2.90;99.90;;;;;;5040368;28;20048;-66
2022/11/28 00:52:41;;;;;;;18.60;8.18;;;3.00;99.90;;;;;;5036303;28;20041;-69
2022/11/28 00:55:07;;;;;;;18.13;8.23;;;3.10;99.90;;;;;;5042906;28;20052;-65
2022/11/28 00:57:33;;;;;;;19.77;8.43;;;3.10;99.90;;;;;;5036111;28;20119;-66
2022/11/28 00:59:59;;;;;;;16.83;7.95;;;3.20;99.90;;;;;;5043594;28;20378;-66
2022/11/28 01:02:24;;;;;;;16.85;7.35;;;3.20;99.90;;;;;;5043312;28;20191;-67
2022/11/28 01:04:50;;;;;;;19.65;8.13;;;3.30;99.90;;;;;;5025424;28;20032;-66
2022/11/28 01:07:16;;;;;;;17.15;7.03;;;3.50;99.90;;;;;;5034501;28;20030;-64
2022/11/28 01:09:42;;;;;;;16.40;7.32;;;3.60;99.90;;;;;;5038169;28;20108;-68
2022/11/28 01:12:08;;;;;;;14.18;6.90;;;3.60;99.90;;;;;;5042953;28;20486;-64
2022/11/28 01:14:33;;;;;;;14.93;7.30;;;3.60;99.90;;;;;;5030492;28;20033;-65
2022/11/28 01:16:59;;;;;;;16.60;7.25;;;3.70;99.90;;;;;;5032562;28;20036;-64
2022/11/28 01:19:25;;;;;;;16.58;8.02;;;3.60;99.90;;;;;;5034922;28;20029;-66
2022/11/28 01:21:50;;;;;;;14.98;7.43;;;3.60;99.90;;;;;;5040801;28;20021;-65
2022/11/28 01:24:16;;;;;;;18.25;8.57;;;3.60;99.90;;;;;;5038673;28;20087;-66
2022/11/28 01:26:43;;;;;;;17.65;8.00;;;3.60;99.90;;;;;;5042656;28;20390;-67
2022/11/28 01:29:09;;;;;;;19.48;8.57;;;3.60;99.90;;;;;;5034338;28;20131;-66
2022/11/28 01:31:36;;;;;;;18.35;8.38;;;3.60;99.90;;;;;;5044260;28;20113;-66
2022/11/28 01:34:01;;;;;;;17.60;8.38;;;3.60;99.90;;;;;;5024994;28;20033;-65
2022/11/28 01:36:28;;;;;;;15.90;7.78;;;3.60;99.90;;;;;;5046059;28;20040;-66
2022/11/28 01:38:54;;;;;;;18.23;8.55;;;3.60;99.90;;;;;;5027477;28;20035;-66
2022/11/28 01:41:23;;;;;;;18.50;8.55;;;3.50;99.90;;;;;;5034060;28;20037;-65
2022/11/28 01:44:07;;;;;;;16.08;7.93;;;3.50;99.90;;;;;;5039490;28;20099;-66
2022/11/28 01:46:34;;;;;;;18.58;8.57;;;3.50;99.90;;;;;;5009757;28;20046;-64
2022/11/28 01:49:15;;;;;;;18.20;8.05;;;3.50;99.90;;;;;;5041967;28;20033;-63
2022/11/28 01:52:12;;;;;;;18.48;8.05;;;3.50;99.90;;;;;;5040692;28;20126;-64
2022/11/28 01:54:41;;;;;;;16.77;7.82;;;3.50;99.90;;;;;;5017093;28;20120;-66
2022/11/28 01:57:24;;;;;;;17.98;8.38;;;3.40;99.90;;;;;;5043587;28;20631;-66
2022/11/28 02:00:09;;;;;;;18.98;8.13;;;3.40;99.90;;;;;;5041548;28;20500;-66
2022/11/28 02:02:56;;;;;;;16.67;8.35;;;3.30;99.90;;;;;;5027010;28;20025;-66
2022/11/28 02:05:22;;;;;;;15.88;7.13;;;3.30;99.90;;;;;;5024181;28;20037;-66
2022/11/28 02:07:49;;;;;;;18.55;7.95;;;3.30;99.90;;;;;;5042627;28;20078;-69
2022/11/28 02:10:24;;;;;;;18.08;8.38;;;3.30;99.90;;;;;;5036838;28;20113;-66
2022/11/28 02:13:11;;;;;;;18.73;8.35;;;3.40;99.90;;;;;;5039729;28;20049;-65
2022/11/28 02:15:58;;;;;;;19.92;8.20;;;3.50;99.90;;;;;;5023792;28;20032;-66
2022/11/28 02:18:39;;;;;;;18.85;8.35;;;3.50;99.90;;;;;;5051337;28;20363;-65
2022/11/28 02:21:10;;;;;;;;;;;3.60;99.90;;;;;;5038423;28;20026;-65
2022/11/28 02:24:23;;;;;;;16.77;7.20;;;3.60;99.90;;;;;;5031302;28;19913;-66
2022/11/28 02:27:07;;;;;;;15.75;7.05;;;3.60;99.90;;;;;;5027395;28;20056;-68
2022/11/28 02:30:15;;;;;;;17.98;8.10;;;3.60;99.90;;;;;;5040844;28;20033;-66
2022/11/28 02:32:48;;;;;;;17.63;7.90;;;3.60;99.90;;;;;;5032707;28;20045;-64
2022/11/28 02:35:34;;;;;;;18.90;7.72;;;3.60;99.90;;;;;;5043643;28;20030;-66
2022/11/28 02:38:34;;;;;;;19.55;8.23;;;3.60;99.90;;;;;;5032536;28;20039;-63
2022/11/28 02:41:18;;;;;;;21.05;8.73;;;3.50;99.90;;;;;;5024169;28;20055;-64
2022/11/28 02:44:00;;;;;;;20.17;8.50;;;3.40;99.90;;;;;;5043897;28;20118;-67
2022/11/28 02:46:47;;;;;;;20.50;8.68;;;3.40;99.90;;;;;;5030826;28;20052;-65
2022/11/28 02:49:41;;;;;;;21.30;8.65;;;3.30;99.90;;;;;;5020419;28;20041;-65
2022/11/28 02:52:16;;;;;;;17.98;8.05;;;3.30;99.90;;;;;;5009998;28;20930;-65
2022/11/28 02:54:43;;;;;;;20.17;8.65;;;3.30;99.90;;;;;;5029479;28;20081;-65
2022/11/28 02:57:09;;;;;;;18.98;8.65;;;3.40;99.90;;;;;;5029547;28;20104;-64
2022/11/28 02:59:38;;;;;;;19.45;8.73;;;3.40;99.90;;;;;;5042116;28;20043;-66
2022/11/28 03:02:14;;;;;;;20.50;9.00;;;3.40;99.90;;;;;;5049778;28;20056;-66
2022/11/28 03:04:54;;;;;;;18.00;7.93;;;3.40;99.90;;;;;;5034512;28;20467;-65
2022/11/28 03:07:39;;;;;;;21.95;9.00;;;3.30;99.90;;;;;;5030466;28;20390;-66
2022/11/28 03:10:32;;;;;;;20.33;8.80;;;3.30;99.90;;;;;;5028515;28;20183;-66
2022/11/28 03:13:31;;;;;;;19.80;8.60;;;3.30;99.90;;;;;;5026605;28;20091;-66
2022/11/28 03:15:57;;;;;;;23.73;8.77;;;3.20;99.90;;;;;;5024745;28;20076;-65
2022/11/28 03:18:30;;;;;;;21.27;8.95;;;3.20;99.90;;;;;;5032788;28;20045;-66
2022/11/28 03:21:08;;;;;;;20.48;8.82;;;3.20;99.90;;;;;;5040349;28;20033;-66
2022/11/28 03:23:45;;;;;;;19.30;8.55;;;3.20;99.90;;;;;;5029296;28;20064;-66
2022/11/28 03:26:31;;;;;;;20.90;8.90;;;3.20;99.90;;;;;;5036100;28;20634;-66
2022/11/28 03:29:07;;;;;;;21.33;8.82;;;3.10;99.90;;;;;;5040338;28;20028;-66
2022/11/28 03:31:44;;;;;;;16.77;8.32;;;3.20;99.90;;;;;;5024169;28;20025;-65
2022/11/28 03:34:14;;;;;;;19.98;8.25;;;3.20;99.90;;;;;;5037820;28;20034;-65
2022/11/28 03:36:45;;;;;;;19.83;8.43;;;3.30;99.90;;;;;;5040979;28;20033;-66
2022/11/28 03:39:16;;;;;;;21.60;7.88;;;3.30;99.90;;;;;;5037379;28;20025;-66
2022/11/28 03:41:49;;;;;;;17.73;7.80;;;3.30;99.90;;;;;;5048129;28;20053;-66
2022/11/28 03:44:31;;;;;;;17.02;7.40;;;3.40;99.90;;;;;;5044314;28;20552;-64
2022/11/28 03:46:59;;;;;;;17.42;7.57;;;3.40;99.90;;;;;;5027331;28;20083;-66
2022/11/28 03:49:30;;;;;;;18.67;8.15;;;3.40;99.90;;;;;;5037854;28;20031;-67
2022/11/28 03:52:06;;;;;;;17.50;8.13;;;3.50;99.90;;;;;;5049105;28;20437;-67
2022/11/28 03:54:34;;;;;;;18.02;8.15;;;3.50;99.90;;;;;;5040803;28;20047;-65
2022/11/28 03:57:19;;;;;;;20.15;7.97;;;3.50;99.90;;;;;;5027887;28;20513;-66
2022/11/28 03:59:48;;;;;;;16.75;7.88;;;3.60;99.90;;;;;;5016802;28;20060;-66
2022/11/28 04:02:34;;;;;;;17.05;8.52;;;3.60;99.90;;;;;;5027349;28;20142;-67
2022/11/28 04:05:08;;;;;;;17.15;7.20;;;3.60;99.90;;;;;;5035416;28;20052;-66
2022/11/28 04:07:33;;;;;;;17.58;8.07;;;3.60;99.90;;;;;;5029332;28;20501;-66
2022/11/28 04:10:20;;;;;;;19.35;8.52;;;3.60;99.90;;;;;;5028468;28;20029;-66
2022/11/28 04:12:53;;;;;;;19.80;8.60;;;3.60;99.90;;;;;;5028837;28;20057;-65
2022/11/28 04:15:54;;;;;;;18.67;8.23;;;3.60;99.90;;;;;;5029057;28;20040;-66
2022/11/28 04:18:29;;;;;;;18.92;8.43;;;3.60;99.90;;;;;;5029157;28;20057;-65
2022/11/28 04:21:25;;;;;;;17.10;7.97;;;3.60;99.90;;;;;;5027155;28;21767;-68
2022/11/28 04:23:55;;;;;;;15.68;7.53;;;3.60;99.90;;;;;;5019849;28;20045;-65
2022/11/28 04:26:34;;;;;;;18.20;8.13;;;3.60;99.90;;;;;;5027301;28;20032;-65
2022/11/28 04:29:06;;;;;;;17.58;7.78;;;3.70;99.90;;;;;;5030286;28;20036;-65
2022/11/28 04:31:33;;;;;;;17.20;7.93;;;3.70;99.90;;;;;;5040843;28;20056;-66
2022/11/28 04:34:04;;;;;;;19.35;7.85;;;3.70;99.90;;;;;;5042045;28;20056;-66
2022/11/28 04:36:33;;;;;;;17.65;7.78;;;3.70;99.90;;;;;;5036295;28;20025;-67
2022/11/28 04:39:00;;;;;;;20.30;8.77;;;3.70;99.90;;;;;;5037642;28;20075;-67
2022/11/28 04:41:40;;;;;;;18.70;8.63;;;3.70;99.90;;;;;;5048813;28;20029;-65
2022/11/28 04:44:21;;;;;;;20.52;8.38;;;3.70;99.90;;;;;;5047566;28;20736;-65
2022/11/28 04:46:52;;;;;;;21.05;9.02;;;3.70;99.90;;;;;;5041093;28;20037;-67
2022/11/28 04:49:18;;;;;;;18.17;7.93;;;3.70;99.90;;;;;;5027350;28;20068;-66
2022/11/28 04:51:47;;;;;;;17.45;7.97;;;3.70;99.90;;;;;;5028753;28;20691;-66
2022/11/28 04:54:24;;;;;;;19.35;8.40;;;3.70;99.90;;;;;;5026539;28;20083;-66
2022/11/28 04:56:59;;;;;;;17.17;7.38;;;3.70;99.90;;;;;;5028050;28;20064;-64
2022/11/28 04:59:27;;;;;;;22.33;9.07;;;3.70;99.90;;;;;;5028401;28;20025;-66
2022/11/28 05:01:54;;;;;;;18.35;8.25;;;3.70;99.90;;;;;;5028187;28;20390;-66
2022/11/28 05:04:20;;;;;;;18.83;8.00;;;3.70;99.90;;;;;;5026011;28;20034;-66
2022/11/28 05:06:46;;;;;;;16.35;7.43;;;3.70;99.90;;;;;;5029154;28;20494;-67
2022/11/28 05:09:12;;;;;;;16.42;7.72;;;3.70;99.90;;;;;;5027407;28;20029;-66
2022/11/28 05:11:38;;;;;;;15.80;8.00;;;3.70;99.90;;;;;;5026924;28;20029;-66
2022/11/28 05:14:04;;;;;;;18.20;8.50;;;3.80;99.90;;;;;;5027296;28;20037;-66
2022/11/28 05:16:30;;;;;;;18.27;8.15;;;3.80;99.90;;;;;;5024682;28;20036;-66
2022/11/28 05:18:55;;;;;;;19.02;8.35;;;3.80;99.90;;;;;;5025413;28;20092;-68
2022/11/28 05:21:21;;;;;;;18.42;8.10;;;3.80;99.90;;;;;;5023297;28;20037;-65
2022/11/28 05:23:47;;;;;;;20.15;8.38;;;3.80;99.90;;;;;;5024633;28;20038;-65
2022/11/28 05:26:15;;;;;;;18.20;8.55;;;3.70;99.90;;;;;;5027485;28;20029;-66
2022/11/28 05:28:45;;;;;;;18.40;8.30;;;3.70;99.90;;;;;;5028207;28;20068;-65
2022/11/28 05:31:12;;;;;;;16.77;7.93;;;3.70;99.90;;;;;;5024418;28;20470;-64
2022/11/28 05:33:38;;;;;;;20.83;9.07;;;3.70;99.90;;;;;;5027696;28;20041;-66
2022/11/28 05:36:10;;;;;;;21.27;10.07;;;3.70;99.90;;;;;;5025732;28;20030;-66
2022/11/28 05:38:36;;;;;;;19.30;8.63;;;3.70;99.90;;;;;;5033411;28;20283;-64
2022/11/28 05:41:02;;;;;;;27.08;11.93;;;3.70;99.90;;;;;;5033455;28;20634;-65
2022/11/28 05:43:28;;;;;;;26.02;11.75;;;3.70;99.90;;;;;;5029891;28;20510;-64
2022/11/28 05:45:55;;;;;;;23.75;10.73;;;3.70;99.90;;;;;;5033331;28;20034;-66
2022/11/28 05:48:21;;;;;;;27.52;14.25;;;3.70;99.90;;;;;;5030887;28;20025;-66
2022/11/28 05:50:49;;;;;;;21.88;11.27;;;3.60;99.90;;;;;;5043531;28;20120;-66
2022/11/28 05:53:16;;;;;;;29.27;12.65;;;3.60;99.90;;;;;;5047384;28;20037;-66
2022/11/28 05:55:42;;;;;;;26.73;11.27;;;3.60;99.90;;;;;;5051819;28;20056;-66
2022/11/28 05:58:08;;;;;;;22.38;10.07;;;3.50;99.90;;;;;;5044705;28;20029;-66
2022/11/28 06:00:34;;;;;;;24.75;11.13;;;3.50;99.90;;;;;;5051633;28;20056;-66
2022/11/28 06:03:00;;;;;;;25.30;11.70;;;3.50;99.90;;;;;;5029443;28;20038;-68
2022/11/28 06:05:26;;;;;;;26.65;11.55;;;3.50;99.90;;;;;;5030212;28;20029;-66
2022/11/28 06:07:51;;;;;;;22.55;11.07;;;3.50;99.90;;;;;;5031612;28;20501;-66
2022/11/28 06:10:18;;;;;;;22.27;10.10;;;3.50;99.90;;;;;;5042038;28;20406;-67
2022/11/28 06:12:43;;;;;;;19.13;8.50;;;3.50;99.90;;;;;;5029163;28;20107;-66
2022/11/28 06:15:09;;;;;;;19.25;9.00;;;3.50;99.90;;;;;;5030747;28;20033;-66
2022/11/28 06:17:35;;;;;;;17.48;7.05;;;3.50;99.90;;;;;;5031017;28;20056;-66
2022/11/28 06:20:01;;;;;;;17.30;7.70;;;3.50;99.90;;;;;;5031029;28;20521;-68
2022/11/28 06:22:26;;;;;;;18.33;8.32;;;3.40;99.90;;;;;;5030404;28;20421;-66
2022/11/28 06:24:52;;;;;;;21.52;8.98;;;3.40;99.90;;;;;;5031157;28;20109;-67
2022/11/28 06:27:18;;;;;;;22.60;9.20;;;3.40;99.90;;;;;;5047817;28;20051;-65
2022/11/28 06:29:43;;;;;;;24.63;9.98;;;3.40;99.90;;;;;;5044768;28;20076;-65
2022/11/28 06:32:09;;;;;;;29.27;13.00;;;3.40;99.90;;;;;;5030593;28;20463;-65
2022/11/28 06:34:34;;;;;;;21.20;10.77;;;3.30;99.90;;;;;;5029207;28;20095;-64
2022/11/28 06:37:00;;;;;;;28.00;12.98;;;3.30;99.90;;;;;;5033539;28;20033;-67
2022/11/28 06:39:26;;;;;;;22.17;10.43;;;3.30;99.90;;;;;;5037652;28;20036;-66
2022/11/28 06:41:51;;;;;;;23.80;10.80;;;3.30;99.90;;;;;;5033929;28;20060;-67
2022/11/28 06:44:17;;;;;;;26.25;10.70;;;3.30;99.90;;;;;;5031852;28;20047;-66
2022/11/28 06:46:43;;;;;;;22.23;10.23;;;3.40;99.90;;;;;;5041950;28;20043;-66
2022/11/28 06:49:13;;;;;;;21.38;9.55;;;3.40;99.90;;;;;;5024800;28;20041;-66
2022/11/28 06:51:40;;;;;;;20.63;9.48;;;3.40;99.90;;;;;;5037590;28;20084;-65
2022/11/28 06:54:07;;;;;;;20.58;9.65;;;3.40;99.90;;;;;;5024788;28;20029;-66
2022/11/28 06:56:32;;;;;;;21.67;10.80;;;3.40;99.90;;;;;;5029495;28;20049;-65
2022/11/28 06:58:59;;;;;;;24.45;11.05;;;3.40;99.90;;;;;;5050271;28;20029;-65
2022/11/28 07:01:28;;;;;;;20.42;9.57;;;3.40;99.90;;;;;;5037219;28;21767;-66
2022/11/28 07:03:54;;;;;;;21.88;10.25;;;3.40;99.90;;;;;;5047761;28;20080;-64
2022/11/28 07:06:20;;;;;;;20.50;8.95;;;3.40;99.90;;;;;;5049628;28;20040;-64
2022/11/28 07:08:47;;;;;;;21.52;10.20;;;3.40;99.90;;;;;;5042961;28;20654;-66
2022/11/28 07:11:25;;;;;;;23.65;11.45;;;3.50;99.90;;;;;;5029073;28;20462;-65
2022/11/28 07:13:52;;;;;;;23.73;10.77;;;3.50;99.90;;;;;;5030482;28;20083;-68
2022/11/28 07:16:24;;;;;;;22.42;9.88;;;3.60;99.90;;;;;;5034502;28;20075;-68
2022/11/28 07:18:51;;;;;;;20.20;9.30;;;3.60;99.90;;;;;;5028488;28;20556;-67
2022/11/28 07:21:17;;;;;;;18.65;8.07;;;3.60;99.90;;;;;;5028283;28;20029;-68
2022/11/28 07:23:44;;;;;;;15.82;7.00;;;3.50;99.90;;;;;;5030050;28;20613;-66
2022/11/28 07:26:12;;;;;;;24.70;8.25;;;3.40;99.90;;;;;;5027797;28;20462;-67
2022/11/28 07:28:38;;;;;;;18.98;8.82;;;3.30;99.90;;;;;;5035674;28;20079;-67
2022/11/28 07:31:08;;;;;;;21.65;8.45;;;3.30;99.90;;;;;;5027581;28;20033;-68
2022/11/28 07:33:34;;;;;;;19.65;8.35;;;3.40;99.90;;;;;;5022975;28;20030;-68
2022/11/28 07:36:04;;;;;;;20.70;8.23;;;3.40;99.90;;;;;;5034172;28;20114;-67
2022/11/28 07:38:31;;;;;;;23.58;9.20;;;3.40;99.90;;;;;;5026457;28;20036;-67
2022/11/28 07:41:11;;;;;;;18.15;8.13;;;3.30;99.90;;;;;;5026067;28;20030;-67
2022/11/28 07:43:44;;;;;;;22.15;8.70;;;3.40;99.90;;;;;;5022440;28;20033;-67
2022/11/28 07:46:13;;;;;;;24.38;7.95;;;3.40;99.90;;;;;;5027601;28;20075;-68
2022/11/28 07:48:39;;;;;;;20.02;8.20;;;3.40;99.90;;;;;;5034041;28;20474;-67
2022/11/28 07:51:07;;;;;;;21.02;9.57;;;3.50;99.90;;;;;;5024402;28;20044;-69
2022/11/28 07:53:33;;;;;;;18.02;8.80;;;3.50;99.90;;;;;;5024575;28;20036;-67
2022/11/28 07:56:07;;;;;;;18.40;8.27;;;3.50;99.90;;;;;;5026203;28;20030;-67
2022/11/28 07:58:34;;;;;;;15.73;7.93;;;3.50;99.90;;;;;;5029063;28;20033;-68
2022/11/28 08:01:06;;;;;;;27.00;8.98;;;3.50;99.90;;;;;;5040335;28;20029;-69
2022/11/28 08:03:32;;;;;;;21.05;9.45;;;3.60;99.90;;;;;;5029769;28;20048;-67
2022/11/28 08:06:01;;;;;;;30.55;10.18;;;3.60;99.90;;;;;;5027397;28;20033;-68
2022/11/28 08:08:26;;;;;;;20.50;8.90;;;3.60;99.90;;;;;;5033156;28;20685;-68
2022/11/28 08:10:57;;;;;;;17.67;8.25;;;3.70;99.90;;;;;;5030628;28;20029;-67
2022/11/28 08:13:23;;;;;;;;;;;3.60;99.90;;;;;;5018656;28;20053;-67
2022/11/28 08:15:48;;;;;;;17.33;7.78;;;3.70;99.90;;;;;;5028784;28;20274;-67
2022/11/28 08:18:14;;;;;;;19.15;8.93;;;3.70;99.90;;;;;;5027031;28;20144;-66
2022/11/28 08:20:40;;;;;;;20.85;8.75;;;3.60;99.90;;;;;;5031850;28;20029;-66
2022/11/28 08:23:05;;;;;;;19.33;9.43;;;3.60;99.90;;;;;;5022753;28;20087;-68
2022/11/28 08:25:31;;;;;;;19.15;8.85;;;3.60;99.90;;;;;;5018479;28;20037;-66
2022/11/28 08:27:57;;;;;;;22.40;9.77;;;3.60;99.90;;;;;;5034176;28;20033;-67
2022/11/28 08:30:22;;;;;;;22.95;10.20;;;3.60;99.90;;;;;;5034501;28;20025;-68
2022/11/28 08:32:49;;;;;;;22.80;10.18;;;3.70;99.90;;;;;;5045668;28;20373;-68
2022/11/28 08:35:14;;;;;;;19.85;9.00;;;3.70;99.90;;;;;;5032519;28;20029;-68
2022/11/28 08:37:40;;;;;;;18.42;8.55;;;3.80;99.90;;;;;;5030621;28;20438;-68
2022/11/28 08:40:06;;;;;;;17.17;7.90;;;3.80;99.90;;;;;;5029313;28;20032;-67
2022/11/28 08:42:32;;;;;;;21.48;9.50;;;3.80;99.90;;;;;;5027718;28;20065;-68
2022/11/28 08:44:57;;;;;;;21.65;8.73;;;3.80;99.90;;;;;;5025885;28;20100;-67
2022/11/28 08:47:23;;;;;;;18.30;8.43;;;3.80;99.90;;;;;;5030641;28;20032;-67
2022/11/28 08:49:49;;;;;;;29.52;12.15;;;3.80;99.90;;;;;;5027779;28;20033;-68
2022/11/28 08:52:14;;;;;;;59.15;22.88;;;3.90;99.90;;;;;;5026503;28;20037;-67
2022/11/28 08:54:40;;;;;;;45.55;20.75;;;4.00;99.90;;;;;;5026689;28;20030;-68
2022/11/28 08:57:06;;;;;;;21.98;10.27;;;4.10;99.90;;;;;;5027989;28;20047;-68
2022/11/28 08:59:32;;;;;;;26.85;12.13;;;4.10;99.90;;;;;;5026704;28;20025;-67
2022/11/28 09:01:57;;;;;;;27.15;11.52;;;4.10;99.90;;;;;;5027899;28;20379;-68
2022/11/28 09:04:23;;;;;;;26.90;11.75;;;4.10;99.90;;;;;;5028340;28;20110;-68
2022/11/28 09:06:49;;;;;;;29.25;13.02;;;4.10;99.90;;;;;;5028589;28;20507;-67
2022/11/28 09:09:15;;;;;;;26.33;11.05;;;4.10;99.90;;;;;;5026387;28;20032;-67
2022/11/28 09:11:41;;;;;;;26.27;12.60;;;4.10;99.90;;;;;;5035056;28;20025;-67
2022/11/28 09:14:07;;;;;;;25.65;11.95;;;4.20;99.90;;;;;;5030326;28;20045;-67
2022/11/28 09:16:33;;;;;;;26.08;12.25;;;4.20;99.90;;;;;;5024348;28;20037;-67
2022/11/28 09:18:58;;;;;;;29.05;12.80;;;4.30;99.90;;;;;;5028639;28;20025;-65
2022/11/28 09:21:24;;;;;;;25.48;12.45;;;4.40;99.90;;;;;;5026904;28;20025;-66
2022/11/28 09:23:53;;;;;;;30.05;13.73;;;4.50;99.90;;;;;;5027319;28;20034;-65
2022/11/28 09:26:20;;;;;;;28.33;12.60;;;4.50;99.90;;;;;;5026168;28;20079;-66
2022/11/28 09:28:46;;;;;;;28.77;13.25;;;4.60;99.90;;;;;;5027634;28;20475;-66
2022/11/28 09:31:14;;;;;;;29.40;13.93;;;4.70;99.90;;;;;;5027351;28;20021;-67
2022/11/28 09:33:40;;;;;;;34.33;14.30;;;4.70;99.90;;;;;;5027470;28;20072;-66
2022/11/28 09:36:08;;;;;;;35.97;17.05;;;4.70;99.90;;;;;;5027507;28;20053;-67
2022/11/28 09:38:34;;;;;;;40.13;17.23;;;4.80;99.90;;;;;;5026599;28;20041;-66
2022/11/28 09:41:01;;;;;;;37.78;16.60;;;4.80;99.90;;;;;;5027459;28;20057;-67
2022/11/28 09:43:37;;;;;;;35.03;14.63;;;4.80;99.90;;;;;;5025809;28;20041;-67
2022/11/28 09:46:08;;;;;;;30.73;14.68;;;4.90;99.90;;;;;;5027451;28;20028;-68
2022/11/28 09:48:38;;;;;;;29.83;13.88;;;4.80;99.90;;;;;;5026630;28;20156;-66
2022/11/28 09:51:19;;;;;;;29.77;14.00;;;4.90;99.90;;;;;;5027409;28;20387;-66
2022/11/28 09:54:01;;;;;;;28.20;13.45;;;5.00;99.90;;;;;;5027326;28;20059;-67
2022/11/28 09:56:26;;;;;;;33.30;15.98;;;5.00;99.90;;;;;;5041720;28;20498;-66
2022/11/28 09:58:59;;;;;;;31.48;14.40;;;5.10;99.90;;;;;;5026443;28;20063;-67
2022/11/28 10:01:49;;;;;;;28.67;14.23;;;5.10;99.90;;;;;;5006720;28;20458;-67
2022/11/28 10:05:09;;;;;;;32.58;15.43;;;5.20;99.90;;;;;;5006900;28;20112;-66
2022/11/28 10:07:52;;;;;;;32.38;15.48;;;5.30;99.90;;;;;;4986850;28;20042;-67
2022/11/28 10:10:39;;;;;;;28.45;12.95;;;5.40;99.90;;;;;;5030013;28;20113;-67
2022/11/28 10:13:26;;;;;;;26.40;13.02;;;5.40;99.90;;;;;;4985966;28;1108238;-65
2022/11/28 10:16:04;;;;;;;22.80;10.85;;;5.40;99.90;;;;;;5030152;28;20619;-67
2022/11/28 10:18:45;;;;;;;26.88;11.35;;;5.40;99.90;;;;;;5025782;28;20048;-67
2022/11/28 10:21:34;;;;;;;26.70;11.48;;;5.50;99.90;;;;;;5009637;28;20026;-66
2022/11/28 10:24:06;;;;;;;23.02;10.48;;;5.50;99.90;;;;;;5028417;28;20045;-66
2022/11/28 10:26:44;;;;;;;23.02;10.60;;;5.50;99.90;;;;;;5029653;28;20259;-66
2022/11/28 10:29:24;;;;;;;21.15;10.40;;;5.60;99.90;;;;;;5030706;28;20486;-67
2022/11/28 10:31:54;;;;;;;23.35;11.40;;;5.60;99.90;;;;;;5029600;28;20044;-66
2022/11/28 10:34:27;;;;;;;25.65;11.88;;;5.60;99.90;;;;;;5024041;28;20045;-68
2022/11/28 10:37:01;;;;;;;28.10;11.80;;;5.70;99.90;;;;;;5011544;28;20463;-66
2022/11/28 10:39:27;;;;;;;24.75;11.02;;;5.70;99.90;;;;;;5026936;28;20037;-67
2022/11/28 10:42:12;;;;;;;22.20;10.18;;;5.80;99.90;;;;;;5045550;28;20429;-67
2022/11/28 10:44:50;;;;;;;22.83;10.95;;;5.70;99.90;;;;;;5033231;28;20107;-66
2022/11/28 10:47:26;;;;;;;21.00;10.52;;;5.80;99.90;;;;;;5029568;28;20029;-67
2022/11/28 10:50:03;;;;;;;23.75;10.48;;;5.80;99.90;;;;;;5030789;28;20037;-66
2022/11/28 10:52:34;;;;;;;28.52;12.95;;;5.90;99.90;;;;;;5029246;28;20061;-66
2022/11/28 10:55:18;;;;;;;;;;;5.90;99.90;;;;;;5030531;28;20037;-66
2022/11/28 10:57:54;;;;;;;27.38;13.75;;;5.90;99.90;;;;;;5030276;28;19920;-67
2022/11/28 11:00:20;;;;;;;31.00;14.38;;;6.00;99.90;;;;;;5028280;28;20025;-67
2022/11/28 11:02:49;;;;;;;30.27;14.98;;;6.00;99.90;;;;;;5019960;28;20602;-67
2022/11/28 11:05:27;;;;;;;31.35;14.23;;;6.00;99.90;;;;;;5017642;28;20574;-67
2022/11/28 11:07:56;;;;;;;29.27;14.38;;;5.90;99.90;;;;;;5013094;28;20049;-67
2022/11/28 11:10:26;;;;;;;31.13;15.20;;;6.00;99.90;;;;;;5024059;28;20382;-67
2022/11/28 11:12:52;;;;;;;34.97;15.00;;;6.00;99.90;;;;;;5021092;28;20119;-66
2022/11/28 11:15:20;;;;;;;31.08;13.32;;;6.00;99.90;;;;;;5013599;28;20471;-67
2022/11/28 11:17:45;;;;;;;27.25;12.93;;;6.00;99.90;;;;;;5031578;28;20038;-67
2022/11/28 11:20:30;;;;;;;25.38;12.25;;;6.00;99.90;;;;;;5033039;28;20042;-66
2022/11/28 11:22:58;;;;;;;28.80;12.27;;;6.00;99.90;;;;;;5030377;28;20041;-66
2022/11/28 11:25:28;;;;;;;26.60;12.20;;;6.00;99.90;;;;;;5028017;28;20033;-67
2022/11/28 11:27:56;;;;;;;23.08;11.80;;;6.00;99.90;;;;;;5029561;28;20099;-67
2022/11/28 11:30:27;;;;;;;29.38;12.38;;;6.10;99.90;;;;;;5028801;28;20037;-66
2022/11/28 11:32:55;;;;;;;26.70;12.00;;;6.10;99.90;;;;;;5013139;28;20470;-67
2022/11/28 11:35:34;;;;;;;23.98;11.65;;;6.10;99.90;;;;;;5029799;28;20026;-66
2022/11/28 11:38:27;;;;;;;26.45;12.18;;;6.20;99.90;;;;;;5018401;28;20037;-67
2022/11/28 11:40:53;;;;;;;27.02;12.23;;;6.30;99.90;;;;;;5015975;28;20448;-66
2022/11/28 11:43:28;;;;;;;31.33;13.35;;;6.30;99.90;;;;;;5027432;28;20076;-67
2022/11/28 11:46:10;;;;;;;29.77;12.57;;;6.40;99.90;;;;;;5027968;28;20175;-67
2022/11/28 11:48:38;;;;;;;28.17;12.55;;;6.50;99.90;;;;;;5027466;28;20610;-68
2022/11/28 11:51:05;;;;;;;32.08;15.35;;;6.60;99.90;;;;;;5021560;28;20034;-66
2022/11/28 11:53:31;;;;;;;48.25;19.77;;;6.60;99.90;;;;;;5026982;28;20466;-66
2022/11/28 11:56:01;;;;;;;49.17;21.17;;;6.60;99.90;;;;;;5028706;28;20044;-67
2022/11/28 11:58:44;;;;;;;30.67;14.10;;;6.70;99.90;;;;;;5028429;28;20444;-67
2022/11/28 12:01:12;;;;;;;38.10;17.65;;;6.80;99.90;;;;;;5016417;28;20033;-66
2022/11/28 12:03:55;;;;;;;31.73;15.52;;;6.80;99.90;;;;;;5029652;28;20849;-67
2022/11/28 12:06:33;;;;;;;31.50;14.40;;;6.80;99.90;;;;;;5013087;28;20061;-67
2022/11/28 12:09:06;;;;;;;31.80;13.93;;;6.80;99.90;;;;;;5009974;28;20467;-67
2022/11/28 12:11:39;;;;;;;30.80;13.20;;;6.80;99.90;;;;;;5016619;28;20557;-66
2022/11/28 12:14:33;;;;;;;26.73;12.45;;;6.90;99.90;;;;;;5015575;28;20037;-67
2022/11/28 12:17:21;;;;;;;28.13;12.77;;;7.00;99.90;;;;;;5012122;28;20107;-67
2022/11/28 12:20:09;;;;;;;29.75;13.05;;;7.00;99.90;;;;;;5015986;28;20033;-66
2022/11/28 12:22:45;;;;;;;26.85;13.52;;;7.10;99.90;;;;;;5028860;28;20041;-66
2022/11/28 12:25:32;;;;;;;24.60;13.20;;;7.10;99.90;;;;;;5030342;28;20021;-66
2022/11/28 12:28:36;;;;;;;28.80;13.38;;;7.20;99.90;;;;;;5029193;28;20083;-67
2022/11/28 12:31:40;;;;;;;29.33;14.05;;;7.20;99.90;;;;;;5029162;28;20494;-65
2022/11/28 12:34:30;;;;;;;29.90;13.20;;;7.20;99.90;;;;;;5028263;28;20032;-66
2022/11/28 12:37:08;;;;;;;27.20;13.80;;;7.30;99.90;;;;;;5016266;28;20072;-66
2022/11/28 12:40:01;;;;;;;33.40;15.82;;;7.30;99.90;;;;;;5024446;28;20068;-66
2022/11/28 12:42:36;;;;;;;25.30;11.90;;;7.30;99.90;;;;;;5030924;28;20052;-66
2022/11/28 12:45:08;;;;;;;25.55;12.25;;;7.30;99.90;;;;;;5008850;28;20041;-67
2022/11/28 12:47:52;;;;;;;33.28;13.90;;;7.30;99.90;;;;;;5008465;28;20430;-67
2022/11/28 12:50:29;;;;;;;25.95;13.32;;;7.20;99.90;;;;;;5023757;28;20033;-67
2022/11/28 12:53:40;;;;;;;38.83;18.45;;;7.20;99.90;;;;;;5028898;28;20038;-66
2022/11/28 12:56:12;;;;;;;72.95;29.63;;;7.20;99.90;;;;;;5022192;28;20112;-67
2022/11/28 12:58:44;;;;;;;92.85;36.30;;;7.20;99.90;;;;;;5028894;28;20029;-67
2022/11/28 13:01:31;;;;;;;64.88;29.33;;;7.20;99.90;;;;;;5028635;28;20040;-66
2022/11/28 13:04:09;;;;;;;39.63;17.55;;;7.20;99.90;;;;;;5028461;28;20033;-67
2022/11/28 13:06:41;;;;;;;31.40;14.98;;;7.20;99.90;;;;;;5027285;28;20022;-67
2022/11/28 13:09:26;;;;;;;31.50;13.95;;;7.20;99.90;;;;;;5037266;28;20124;-67